createdAt,value
2022-10-22T00:01:31.129Z,18.40
2022-10-22T00:04:36.154Z,17.60
2022-10-22T00:07:43.981Z,19.20
2022-10-22T00:10:49.220Z,22.50
2022-10-22T00:13:54.190Z,21.00
2022-10-22T00:16:59.166Z,20.30
2022-10-22T00:20:04.252Z,20.30
2022-10-22T00:23:09.191Z,15.90
2022-10-22T00:26:14.187Z,18.50
2022-10-22T00:29:19.182Z,19.70
2022-10-22T00:32:24.192Z,22.20
2022-10-22T00:35:33.197Z,18.30
2022-10-22T00:38:38.200Z,18.30
2022-10-22T00:41:42.211Z,18.60
2022-10-22T00:44:47.218Z,19.40
2022-10-22T00:47:52.406Z,23.50
2022-10-22T00:50:57.209Z,19.30
2022-10-22T00:54:02.331Z,17.70
2022-10-22T00:57:08.250Z,19.90
2022-10-22T01:00:13.255Z,18.10
2022-10-22T01:03:17.253Z,17.60
2022-10-22T01:06:26.296Z,18.80
2022-10-22T01:09:34.747Z,19.60
2022-10-22T01:12:40.636Z,24.10
2022-10-22T01:15:48.282Z,20.20
2022-10-22T01:18:54.348Z,21.40
2022-10-22T01:21:59.316Z,20.00
2022-10-22T01:25:05.325Z,20.00
2022-10-22T01:28:10.329Z,19.20
2022-10-22T01:31:15.317Z,18.80
2022-10-22T01:34:20.357Z,16.30
2022-10-22T01:37:25.348Z,21.40
2022-10-22T01:40:30.357Z,18.10
2022-10-22T01:43:35.409Z,19.80
2022-10-22T01:46:40.384Z,18.20
2022-10-22T01:49:49.446Z,19.90
2022-10-22T01:52:54.389Z,18.50
2022-10-22T01:55:58.391Z,17.50
2022-10-22T01:59:03.499Z,19.30
2022-10-22T02:02:08.421Z,18.80
2022-10-22T02:05:14.434Z,17.40
2022-10-22T02:08:19.515Z,16.20
2022-10-22T02:11:24.429Z,15.90
2022-10-22T02:14:20.422Z,18.40
2022-10-22T02:17:25.454Z,17.10
2022-10-22T02:20:30.471Z,15.70
2022-10-22T02:23:38.475Z,17.90
2022-10-22T02:26:43.520Z,16.50
2022-10-22T02:29:48.452Z,18.30
2022-10-22T02:32:53.525Z,18.40
2022-10-22T02:35:59.525Z,16.60
2022-10-22T02:39:05.547Z,16.80
2022-10-22T02:42:11.533Z,16.90
2022-10-22T02:45:17.516Z,19.70
2022-10-22T02:48:22.595Z,19.90
2022-10-22T02:51:27.546Z,18.60
2022-10-22T02:54:32.544Z,17.40
2022-10-22T02:57:43.670Z,19.60
2022-10-22T03:00:48.602Z,19.10
2022-10-22T03:03:53.564Z,17.00
2022-10-22T03:06:57.578Z,20.40
2022-10-22T03:10:06.580Z,18.30
2022-10-22T03:13:11.563Z,16.80
2022-10-22T03:16:15.820Z,17.40
2022-10-22T03:19:21.597Z,15.20
2022-10-22T03:22:26.675Z,18.40
2022-10-22T03:25:31.608Z,17.50
2022-10-22T03:28:36.634Z,16.00
2022-10-22T03:31:41.647Z,18.60
2022-10-22T03:34:47.699Z,18.60
2022-10-22T03:37:52.651Z,16.60
2022-10-22T03:40:57.646Z,21.40
2022-10-22T03:44:02.636Z,18.60
2022-10-22T03:47:08.698Z,23.70
2022-10-22T03:50:14.689Z,18.20
2022-10-22T03:53:19.715Z,19.70
2022-10-22T03:56:24.751Z,16.60
2022-10-22T03:59:30.862Z,18.50
2022-10-22T04:02:35.722Z,16.30
2022-10-22T04:05:40.693Z,20.40
2022-10-22T04:08:45.767Z,19.20
2022-10-22T04:11:54.713Z,17.00
2022-10-22T04:15:00.745Z,18.60
2022-10-22T04:18:05.742Z,17.00
2022-10-22T04:21:11.778Z,18.90
2022-10-22T04:24:16.747Z,17.10
2022-10-22T04:27:21.941Z,17.70
2022-10-22T04:30:26.767Z,17.80
2022-10-22T04:33:31.780Z,15.70
2022-10-22T04:36:36.871Z,18.10
2022-10-22T04:39:41.786Z,20.60
2022-10-22T04:42:46.808Z,21.40
2022-10-22T04:45:51.942Z,18.00
2022-10-22T04:48:56.887Z,19.30
2022-10-22T04:52:01.806Z,15.50
2022-10-22T04:55:05.839Z,19.80
2022-10-22T04:58:11.843Z,19.70
2022-10-22T05:01:22.940Z,17.20
2022-10-22T05:04:30.851Z,19.70
2022-10-22T05:07:36.888Z,24.80
2022-10-22T05:10:45.866Z,23.80
2022-10-22T05:13:51.887Z,21.30
2022-10-22T05:16:55.912Z,21.70
2022-10-22T05:20:00.916Z,20.20
2022-10-22T05:23:06.059Z,22.20
2022-10-22T05:26:10.924Z,20.50
2022-10-22T05:29:16.928Z,19.40
2022-10-22T05:32:25.014Z,19.80
2022-10-22T05:35:29.955Z,19.40
2022-10-22T05:38:35.956Z,18.70
2022-10-22T05:41:41.953Z,23.20
2022-10-22T05:44:47.941Z,20.40
2022-10-22T05:47:51.973Z,25.90
2022-10-22T05:50:57.992Z,20.00
2022-10-22T05:54:02.968Z,21.60
2022-10-22T05:57:08.005Z,22.40
2022-10-22T06:00:15.749Z,21.60
2022-10-22T06:03:20.997Z,26.10
2022-10-22T06:06:27.011Z,25.30
2022-10-22T06:09:33.059Z,30.70
2022-10-22T06:12:38.293Z,30.90
2022-10-22T06:15:43.014Z,29.70
2022-10-22T06:18:50.211Z,24.50
2022-10-22T06:21:55.035Z,28.30
2022-10-22T06:25:01.053Z,25.50
2022-10-22T06:28:06.043Z,26.90
2022-10-22T06:31:11.085Z,33.30
2022-10-22T06:34:16.067Z,26.90
2022-10-22T06:37:22.136Z,32.00
2022-10-22T06:40:27.081Z,25.30
2022-10-22T06:43:32.107Z,29.90
2022-10-22T06:46:40.076Z,30.20
2022-10-22T06:49:47.141Z,33.30
2022-10-22T06:52:52.126Z,30.60
2022-10-22T06:55:57.127Z,32.30
2022-10-22T06:59:03.146Z,31.50
2022-10-22T07:02:08.217Z,37.40
2022-10-22T07:05:14.169Z,34.60
2022-10-22T07:08:20.140Z,38.50
2022-10-22T07:11:38.192Z,29.60
2022-10-22T07:14:43.156Z,35.70
2022-10-22T07:17:48.192Z,25.10
2022-10-22T07:20:52.181Z,27.60
2022-10-22T07:24:00.221Z,25.70
2022-10-22T07:27:09.404Z,24.70
2022-10-22T07:30:17.235Z,27.50
2022-10-22T07:33:22.264Z,22.90
2022-10-22T07:36:28.251Z,28.40
2022-10-22T07:39:34.228Z,26.30
2022-10-22T07:42:39.287Z,28.30
2022-10-22T07:45:44.269Z,26.30
2022-10-22T07:48:49.264Z,28.90
2022-10-22T07:51:55.276Z,20.20
2022-10-22T07:55:00.294Z,28.40
2022-10-22T07:58:05.318Z,24.30
2022-10-22T08:01:10.383Z,25.90
2022-10-22T08:04:16.326Z,23.60
2022-10-22T08:07:22.328Z,21.40
2022-10-22T08:10:28.307Z,32.70
2022-10-22T08:13:36.329Z,33.50
2022-10-22T08:16:41.315Z,30.30
2022-10-22T08:19:47.348Z,25.60
2022-10-22T08:22:52.356Z,24.30
2022-10-22T08:25:46.397Z,25.30
2022-10-22T08:28:51.385Z,20.90
2022-10-22T08:31:57.365Z,24.10
2022-10-22T08:35:03.423Z,27.80
2022-10-22T08:38:08.375Z,19.00
2022-10-22T08:41:14.386Z,27.70
2022-10-22T08:44:20.407Z,17.30
2022-10-22T08:47:29.401Z,15.10
2022-10-22T08:50:34.473Z,15.10
2022-10-22T08:53:40.402Z,15.90
2022-10-22T08:56:34.503Z,30.50
2022-10-22T08:59:39.452Z,17.30
2022-10-22T09:02:44.756Z,12.20
2022-10-22T09:08:55.578Z,13.70
2022-10-22T09:12:00.471Z,20.20
2022-10-22T09:15:05.480Z,13.40
2022-10-22T09:18:10.456Z,15.50
2022-10-22T09:21:15.516Z,11.00
2022-10-22T09:24:20.509Z,11.20
2022-10-22T09:27:25.526Z,14.80
2022-10-22T09:30:30.571Z,13.80
2022-10-22T09:33:39.530Z,14.60
2022-10-22T09:36:45.626Z,12.90
2022-10-22T09:39:49.607Z,14.80
2022-10-22T09:42:58.521Z,12.30
2022-10-22T09:46:03.561Z,13.20
2022-10-22T09:49:08.680Z,13.90
2022-10-22T09:52:17.548Z,11.20
2022-10-22T09:55:26.580Z,11.30
2022-10-22T09:58:20.554Z,12.10
2022-10-22T10:01:46.618Z,11.30
2022-10-22T10:04:51.580Z,12.10
2022-10-22T10:07:56.629Z,11.10
2022-10-22T10:11:05.764Z,13.00
2022-10-22T10:14:10.671Z,11.10
2022-10-22T10:17:15.659Z,14.50
2022-10-22T10:20:20.662Z,13.00
2022-10-22T10:23:29.630Z,14.30
2022-10-22T10:26:34.662Z,10.10
2022-10-22T10:29:39.680Z,8.70
2022-10-22T10:32:44.695Z,13.20
2022-10-22T10:35:49.662Z,13.50
2022-10-22T10:38:54.811Z,11.20
2022-10-22T10:42:00.687Z,13.60
2022-10-22T10:45:05.724Z,11.50
2022-10-22T10:48:10.738Z,12.10
2022-10-22T10:51:14.719Z,10.20
2022-10-22T10:54:19.739Z,10.30
2022-10-22T10:57:27.727Z,10.20
2022-10-22T11:00:32.747Z,12.30
2022-10-22T11:03:37.826Z,13.20
2022-10-22T11:06:43.743Z,15.50
2022-10-22T11:09:48.903Z,14.60
2022-10-22T11:12:54.761Z,17.60
2022-10-22T11:16:00.779Z,13.20
2022-10-22T11:19:06.778Z,15.30
2022-10-22T11:22:11.785Z,14.40
2022-10-22T11:25:16.807Z,14.50
2022-10-22T11:28:21.784Z,13.60
2022-10-22T11:31:26.816Z,13.50
2022-10-22T11:34:34.092Z,13.10
2022-10-22T11:37:39.198Z,11.80
2022-10-22T11:40:43.818Z,16.00
2022-10-22T11:43:47.857Z,13.10
2022-10-22T11:46:52.847Z,12.50
2022-10-22T11:49:57.869Z,12.90
2022-10-22T11:53:02.897Z,12.30
2022-10-22T11:56:07.865Z,10.00
2022-10-22T11:59:12.877Z,15.50
2022-10-22T12:02:17.887Z,10.50
2022-10-22T12:05:22.888Z,12.60
2022-10-22T12:08:27.885Z,13.10
2022-10-22T12:11:34.107Z,12.90
2022-10-22T12:14:38.961Z,17.20
2022-10-22T12:17:44.933Z,11.90
2022-10-22T12:20:50.955Z,12.80
2022-10-22T12:23:55.955Z,15.50
2022-10-22T12:27:01.979Z,10.20
2022-10-22T12:30:06.999Z,12.80
2022-10-22T12:33:10.958Z,15.60
2022-10-22T12:36:15.030Z,12.50
2022-10-22T12:39:20.035Z,10.70
2022-10-22T12:42:25.003Z,10.20
2022-10-22T12:45:30.021Z,12.20
2022-10-22T12:48:35.061Z,13.10
2022-10-22T12:51:40.996Z,10.60
2022-10-22T12:54:46.043Z,10.80
2022-10-22T12:57:51.003Z,10.50
2022-10-22T13:00:56.064Z,11.10
2022-10-22T13:03:48.033Z,10.40
2022-10-22T13:06:53.096Z,16.00
2022-10-22T13:09:59.078Z,12.20
2022-10-22T13:13:05.092Z,10.50
2022-10-22T13:16:11.145Z,13.40
2022-10-22T13:19:16.073Z,14.00
2022-10-22T13:22:21.099Z,12.30
2022-10-22T13:25:26.075Z,11.80
2022-10-22T13:28:31.256Z,13.10
2022-10-22T13:31:36.164Z,12.90
2022-10-22T13:34:41.144Z,12.50
2022-10-22T13:38:06.179Z,12.60
2022-10-22T13:41:11.157Z,12.00
2022-10-22T13:44:16.131Z,14.80
2022-10-22T13:47:21.202Z,13.80
2022-10-22T13:50:25.214Z,15.60
2022-10-22T13:53:30.128Z,12.80
2022-10-22T13:56:35.172Z,14.60
2022-10-22T13:59:40.171Z,12.40
2022-10-22T14:02:45.214Z,15.60
2022-10-22T14:05:38.179Z,18.70
2022-10-22T14:08:43.404Z,13.90
2022-10-22T14:11:48.203Z,13.90
2022-10-22T14:14:53.296Z,17.20
2022-10-22T14:17:58.207Z,14.80
2022-10-22T14:21:03.241Z,15.10
2022-10-22T14:24:12.927Z,15.20
2022-10-22T14:27:18.233Z,17.70
2022-10-22T14:30:23.392Z,18.80
2022-10-22T14:33:30.475Z,15.30
2022-10-22T14:36:37.272Z,17.60
2022-10-22T14:39:42.306Z,15.20
2022-10-22T14:42:47.287Z,16.60
2022-10-22T14:45:52.315Z,15.40
2022-10-22T14:48:56.298Z,23.90
2022-10-22T14:52:01.333Z,19.00
2022-10-22T14:55:26.301Z,16.00
2022-10-22T14:58:31.286Z,17.90
2022-10-22T15:01:36.371Z,18.30
2022-10-22T15:04:40.389Z,17.80
2022-10-22T15:07:33.351Z,19.90
2022-10-22T15:10:38.381Z,21.30
2022-10-22T15:13:43.391Z,22.10
2022-10-22T15:16:49.352Z,22.00
2022-10-22T15:19:55.472Z,26.70
2022-10-22T15:23:00.367Z,24.10
2022-10-22T15:26:06.379Z,20.50
2022-10-22T15:29:11.420Z,22.40
2022-10-22T15:32:19.428Z,23.90
2022-10-22T15:35:25.421Z,25.00
2022-10-22T15:41:36.439Z,25.60
2022-10-22T15:44:41.456Z,28.00
2022-10-22T15:47:48.080Z,24.60
2022-10-22T15:50:53.611Z,22.80
2022-10-22T15:53:58.455Z,26.10
2022-10-22T15:57:02.485Z,28.10
2022-10-22T16:00:07.496Z,30.20
2022-10-22T16:03:12.471Z,30.70
2022-10-22T16:06:18.501Z,26.80
2022-10-22T16:09:10.540Z,26.80
2022-10-22T16:12:17.282Z,30.50
2022-10-22T16:15:22.490Z,33.80
2022-10-22T16:18:28.540Z,27.30
2022-10-22T16:21:33.556Z,26.60
2022-10-22T16:24:38.612Z,32.30
2022-10-22T16:27:43.537Z,41.40
2022-10-22T16:30:48.629Z,45.00
2022-10-22T16:33:54.555Z,36.70
2022-10-22T16:36:59.579Z,29.50
2022-10-22T16:39:52.589Z,32.30
2022-10-22T16:42:57.601Z,29.20
2022-10-22T16:46:02.593Z,29.80
2022-10-22T16:49:07.649Z,32.90
2022-10-22T16:52:12.613Z,29.20
2022-10-22T16:55:18.652Z,32.50
2022-10-22T16:58:23.660Z,31.80
2022-10-22T17:01:29.715Z,31.00
2022-10-22T17:04:35.641Z,35.50
2022-10-22T17:07:40.622Z,32.30
2022-10-22T17:10:34.640Z,29.90
2022-10-22T17:13:40.662Z,36.40
2022-10-22T17:16:45.663Z,36.40
2022-10-22T17:19:54.737Z,41.10
2022-10-22T17:23:00.730Z,43.80
2022-10-22T17:26:08.711Z,43.90
2022-10-22T17:29:13.723Z,42.20
2022-10-22T17:32:18.708Z,46.20
2022-10-22T17:35:24.782Z,51.30
2022-10-22T17:38:29.721Z,54.90
2022-10-22T17:41:34.766Z,53.60
2022-10-22T17:44:39.739Z,56.60
2022-10-22T17:47:44.722Z,50.80
2022-10-22T17:50:55.738Z,55.40
2022-10-22T17:54:05.941Z,50.80
2022-10-22T17:57:14.779Z,51.10
2022-10-22T18:03:23.780Z,50.80
2022-10-22T18:06:31.783Z,53.40
2022-10-22T18:09:36.797Z,50.40
2022-10-22T18:12:42.030Z,49.80
2022-10-22T18:15:46.823Z,51.00
2022-10-22T18:18:51.827Z,49.30
2022-10-22T18:21:56.831Z,48.00
2022-10-22T18:25:00.859Z,52.10
2022-10-22T18:28:34.868Z,53.80
2022-10-22T18:31:39.857Z,55.50
2022-10-22T18:34:44.890Z,52.00
2022-10-22T18:37:48.915Z,48.20
2022-10-22T18:40:54.886Z,55.60
2022-10-22T18:44:00.876Z,50.40
2022-10-22T18:47:04.901Z,51.00
2022-10-22T18:50:10.902Z,46.30
2022-10-22T18:53:15.930Z,50.90
2022-10-22T18:56:23.916Z,48.30
2022-10-22T18:59:28.901Z,44.90
2022-10-22T19:02:34.040Z,52.40
2022-10-22T19:05:39.934Z,48.80
2022-10-22T19:08:46.913Z,48.50
2022-10-22T19:11:55.937Z,50.00
2022-10-22T19:15:00.983Z,51.90
2022-10-22T19:18:05.961Z,45.40
2022-10-22T19:21:11.006Z,43.60
2022-10-22T19:24:15.999Z,43.70
2022-10-22T19:27:22.004Z,42.20
2022-10-22T19:30:27.006Z,46.60
2022-10-22T19:33:39.017Z,48.50
2022-10-22T19:36:44.056Z,47.40
2022-10-22T19:39:49.025Z,43.80
2022-10-22T19:42:54.037Z,46.50
2022-10-22T19:46:00.114Z,42.80
2022-10-22T19:49:05.058Z,44.40
2022-10-22T19:52:10.163Z,39.00
2022-10-22T19:55:18.082Z,42.00
2022-10-22T19:58:23.205Z,41.90
2022-10-22T20:01:28.186Z,40.20
2022-10-22T20:04:34.074Z,44.00
2022-10-22T20:07:43.266Z,47.40
2022-10-22T20:10:49.177Z,48.80
2022-10-22T20:13:54.141Z,44.70
2022-10-22T20:17:00.154Z,46.70
2022-10-22T20:20:05.113Z,43.70
2022-10-22T20:23:09.150Z,44.50
2022-10-22T20:26:14.131Z,43.90
2022-10-22T20:29:19.170Z,45.10
2022-10-22T20:32:26.280Z,48.80
2022-10-22T20:35:35.228Z,43.90
2022-10-22T20:38:40.180Z,48.50
2022-10-22T20:41:48.178Z,48.40
2022-10-22T20:44:53.229Z,46.10
2022-10-22T20:48:02.801Z,48.20
2022-10-22T20:51:09.290Z,45.80
2022-10-22T20:54:16.229Z,47.50
2022-10-22T20:57:22.224Z,44.90
2022-10-22T21:00:28.218Z,46.10
2022-10-22T21:06:38.331Z,44.90
2022-10-22T21:09:43.238Z,45.40
2022-10-22T21:12:48.250Z,46.80
2022-10-22T21:15:53.283Z,42.00
2022-10-22T21:18:58.306Z,41.70
2022-10-22T21:22:03.253Z,48.50
2022-10-22T21:25:12.284Z,43.00
2022-10-22T21:28:17.341Z,45.00
2022-10-22T21:31:23.315Z,46.40
2022-10-22T21:34:28.307Z,41.70
2022-10-22T21:37:33.340Z,45.50
2022-10-22T21:40:39.318Z,42.50
2022-10-22T21:43:44.341Z,42.40
2022-10-22T21:46:50.415Z,42.60
2022-10-22T21:49:55.345Z,41.30
2022-10-22T21:52:59.360Z,39.00
2022-10-22T21:56:04.405Z,38.10
2022-10-22T21:59:10.369Z,35.10
2022-10-22T22:02:14.466Z,39.80
2022-10-22T22:05:19.382Z,41.90
2022-10-22T22:08:25.398Z,35.60
2022-10-22T22:11:30.384Z,44.00
2022-10-22T22:14:35.385Z,56.60
2022-10-22T22:17:41.400Z,39.80
2022-10-22T22:20:47.389Z,39.50
2022-10-22T22:23:52.418Z,42.50
2022-10-22T22:26:58.413Z,39.20
2022-10-22T22:30:03.501Z,41.70
2022-10-22T22:33:09.442Z,45.30
2022-10-22T22:36:14.489Z,44.70
2022-10-22T22:39:19.479Z,41.20
2022-10-22T22:42:25.545Z,42.20
2022-10-22T22:45:30.450Z,43.50
2022-10-22T22:48:35.496Z,42.50
2022-10-22T22:51:44.495Z,44.00
2022-10-22T22:54:50.502Z,42.30
2022-10-22T22:57:54.503Z,41.60
2022-10-22T23:00:59.533Z,42.50
2022-10-22T23:04:05.505Z,44.80
2022-10-22T23:07:10.606Z,43.10
2022-10-22T23:10:14.575Z,45.80
2022-10-22T23:13:19.538Z,60.40
2022-10-22T23:16:24.555Z,47.70
2022-10-22T23:19:29.735Z,46.40
2022-10-22T23:22:34.587Z,40.60
2022-10-22T23:25:39.567Z,42.00
2022-10-22T23:28:44.644Z,37.00
2022-10-22T23:31:49.595Z,36.00
2022-10-22T23:34:54.617Z,37.30
2022-10-22T23:38:00.591Z,36.90
2022-10-22T23:41:05.642Z,37.90
2022-10-22T23:44:10.644Z,36.20
2022-10-22T23:47:15.638Z,32.80
2022-10-22T23:50:21.635Z,40.50
2022-10-22T23:53:25.729Z,32.90
2022-10-22T23:56:30.733Z,31.40
2022-10-22T23:59:36.690Z,32.60
